Time;durP1;ratioP1;P1;durP2;ratioP2;P2;SDS_P1;SDS_P2;PMS_P1;PMS_P2;Temp;Humidity;BMP_temperature;BMP_pressure;BME280_temperature;BME280_humidity;BME280_pressure;Samples;Min_cycle;Max_cycle;Signal;HPM_P1;HPM_P2
2022/01/06 00:01:20;;;;;;;4.17;1.97;;;5.10;99.90;;;;;;5021787;28;20231;-62
2022/01/06 00:03:46;;;;;;;1.93;1.60;;;5.00;99.90;;;;;;5018840;28;20569;-64
2022/01/06 00:06:12;;;;;;;3.37;1.70;;;5.00;99.90;;;;;;5018992;28;20691;-63
2022/01/06 00:08:39;;;;;;;2.93;1.67;;;5.00;99.90;;;;;;5016838;28;20192;-64
2022/01/06 00:11:07;;;;;;;3.17;1.67;;;5.00;99.90;;;;;;5014217;28;20182;-66
2022/01/06 00:13:45;;;;;;;2.90;1.70;;;5.00;99.90;;;;;;5017653;28;20178;-65
2022/01/06 00:16:27;;;;;;;3.67;2.03;;;4.90;99.90;;;;;;5015681;28;20193;-70
2022/01/06 00:24:32;;;;;;;2.73;1.90;;;4.60;99.90;;;;;;5018771;28;20240;-64
2022/01/06 00:26:58;;;;;;;3.03;1.73;;;4.50;99.90;;;;;;5014157;28;20198;-62
2022/01/06 00:29:24;;;;;;;3.20;1.60;;;4.50;99.90;;;;;;5016215;28;20265;-64
2022/01/06 00:31:50;;;;;;;3.30;2.03;;;4.40;99.90;;;;;;5014563;28;20179;-64
2022/01/06 00:34:16;;;;;;;2.47;2.00;;;4.40;99.90;;;;;;5014235;28;20239;-65
2022/01/06 00:36:43;;;;;;;3.27;1.80;;;4.40;99.90;;;;;;5017532;28;20372;-64
2022/01/06 00:39:10;;;;;;;2.40;2.03;;;4.30;99.90;;;;;;5017349;28;20597;-63
2022/01/06 00:41:36;;;;;;;4.13;2.10;;;4.30;99.90;;;;;;5018125;28;20221;-63
2022/01/06 00:44:04;;;;;;;4.83;2.20;;;4.20;99.90;;;;;;5016111;28;20243;-66
2022/01/06 00:46:30;;;;;;;3.70;1.60;;;4.10;99.90;;;;;;5016005;28;20187;-63
2022/01/06 00:48:56;;;;;;;4.70;1.97;;;4.20;99.90;;;;;;5015181;28;20200;-63
2022/01/06 00:51:22;;;;;;;3.87;1.97;;;4.10;99.90;;;;;;5020432;28;20632;-62
2022/01/06 00:53:48;;;;;;;3.80;1.90;;;4.00;99.90;;;;;;5019929;28;20196;-62
2022/01/06 00:56:14;;;;;;;3.23;1.43;;;4.10;99.90;;;;;;5024025;28;20262;-62
2022/01/06 00:58:40;;;;;;;4.80;1.50;;;4.00;99.90;;;;;;5020534;28;20226;-65
2022/01/06 01:01:05;;;;;;;5.37;1.50;;;4.00;99.90;;;;;;5015306;28;20288;-63
2022/01/06 01:03:31;;;;;;;3.30;1.37;;;3.90;99.90;;;;;;5016011;28;20214;-62
2022/01/06 01:05:57;;;;;;;2.70;1.30;;;3.90;99.90;;;;;;5018416;28;20193;-64
2022/01/06 01:08:25;;;;;;;1.37;1.27;;;4.00;99.90;;;;;;5016755;28;20195;-66
2022/01/06 01:10:53;;;;;;;1.63;1.23;;;4.10;99.90;;;;;;5020290;28;20193;-62
2022/01/06 01:13:27;;;;;;;2.03;1.30;;;4.10;99.90;;;;;;5018037;28;20281;-64
2022/01/06 01:15:56;;;;;;;2.43;1.17;;;4.10;99.90;;;;;;5020099;28;20187;-62
2022/01/06 01:18:23;;;;;;;2.17;1.47;;;4.10;99.90;;;;;;5021835;28;20184;-61
2022/01/06 01:20:50;;;;;;;1.53;1.30;;;4.10;99.90;;;;;;5019148;28;20797;-65
2022/01/06 01:23:17;;;;;;;2.10;1.20;;;4.10;99.90;;;;;;5018603;28;20217;-63
2022/01/06 01:25:44;;;;;;;1.20;0.97;;;4.10;99.90;;;;;;5018491;28;20284;-65
2022/01/06 01:28:10;;;;;;;3.37;1.07;;;4.10;99.90;;;;;;5018235;28;20647;-62
2022/01/06 01:30:53;;;;;;;2.73;1.03;;;4.10;99.90;;;;;;5020472;28;20646;-62
2022/01/06 01:33:19;;;;;;;1.33;1.00;;;4.10;99.90;;;;;;5017847;28;20641;-62
2022/01/06 01:35:44;;;;;;;1.40;1.30;;;4.00;99.90;;;;;;5020265;28;20268;-65
2022/01/06 01:38:10;;;;;;;1.67;1.10;;;4.00;99.90;;;;;;5021665;28;20277;-62
2022/01/06 01:40:37;;;;;;;1.63;1.20;;;4.10;99.90;;;;;;5018070;28;20217;-63
2022/01/06 01:43:03;;;;;;;1.63;1.27;;;4.00;99.90;;;;;;5017665;28;21015;-62
2022/01/06 01:45:32;;;;;;;4.30;1.40;;;4.00;99.90;;;;;;5018035;28;20277;-62
2022/01/06 01:48:02;;;;;;;1.53;1.27;;;4.10;99.90;;;;;;5020845;28;20220;-62
2022/01/06 01:50:28;;;;;;;4.30;1.60;;;4.10;99.90;;;;;;5018003;28;20184;-68
2022/01/06 01:52:58;;;;;;;3.00;1.30;;;4.20;99.90;;;;;;5021475;28;20199;-62
2022/01/06 01:55:27;;;;;;;5.50;1.40;;;4.30;99.90;;;;;;5018330;28;20199;-62
2022/01/06 01:57:54;;;;;;;3.27;1.67;;;4.30;99.90;;;;;;5019375;28;20656;-62
2022/01/06 02:00:24;;;;;;;1.67;1.23;;;4.30;99.90;;;;;;5019802;28;20224;-63
2022/01/06 02:02:50;;;;;;;5.77;1.60;;;4.40;99.90;;;;;;5017143;28;20286;-61
2022/01/06 02:05:24;;;;;;;1.73;1.20;;;4.50;99.90;;;;;;5020099;28;20272;-62
2022/01/06 02:07:50;;;;;;;6.20;1.53;;;4.40;99.90;;;;;;5022070;28;20228;-62
2022/01/06 02:10:16;;;;;;;3.50;1.50;;;4.40;99.90;;;;;;5025038;28;20214;-64
2022/01/06 02:12:42;;;;;;;4.87;1.87;;;4.30;99.90;;;;;;5018076;28;20189;-68
2022/01/06 02:15:10;;;;;;;4.40;1.67;;;4.30;99.90;;;;;;5021542;28;20186;-62
2022/01/06 02:17:37;;;;;;;3.90;1.80;;;4.20;99.90;;;;;;5021353;28;20208;-62
2022/01/06 02:20:06;;;;;;;4.57;1.70;;;4.40;99.90;;;;;;5021220;28;20245;-62
2022/01/06 02:22:31;;;;;;;3.23;1.67;;;4.20;99.90;;;;;;5026781;28;20194;-63
2022/01/06 02:25:07;;;;;;;5.73;1.40;;;4.20;99.90;;;;;;5025332;28;20193;-62
2022/01/06 02:27:33;;;;;;;2.67;1.50;;;4.20;99.90;;;;;;5021887;28;20287;-63
2022/01/06 02:29:59;;;;;;;2.37;1.37;;;4.10;99.90;;;;;;5016211;28;20706;-63
2022/01/06 02:32:24;;;;;;;2.53;1.73;;;4.20;99.90;;;;;;5017279;28;20187;-64
2022/01/06 02:34:50;;;;;;;5.90;1.47;;;4.10;99.90;;;;;;5023904;28;20671;-65
2022/01/06 02:37:15;;;;;;;3.97;1.93;;;4.20;99.90;;;;;;5022451;28;20271;-62
2022/01/06 02:39:42;;;;;;;7.47;1.53;;;4.20;99.90;;;;;;5017341;28;20585;-65
2022/01/06 02:42:08;;;;;;;3.50;1.40;;;4.30;99.90;;;;;;5018729;28;20222;-63
2022/01/06 02:44:37;;;;;;;2.30;1.57;;;4.20;99.90;;;;;;5019202;28;20200;-67
2022/01/06 02:47:04;;;;;;;7.13;1.50;;;4.30;99.90;;;;;;5016301;28;20187;-64
2022/01/06 02:49:29;;;;;;;3.27;1.30;;;4.20;99.90;;;;;;5017263;28;20600;-62
2022/01/06 02:51:55;;;;;;;3.80;1.50;;;4.30;99.90;;;;;;5015873;28;20215;-62
2022/01/06 02:54:21;;;;;;;4.97;1.67;;;4.30;99.90;;;;;;5017184;28;20199;-62
2022/01/06 02:56:48;;;;;;;2.73;1.30;;;4.20;99.90;;;;;;5018337;28;20641;-65
2022/01/06 02:59:15;;;;;;;5.40;1.33;;;4.10;99.90;;;;;;5017651;28;20184;-65
2022/01/06 03:01:42;;;;;;;1.77;1.20;;;4.00;99.90;;;;;;5017988;28;20242;-62
2022/01/06 03:04:09;;;;;;;1.63;1.20;;;3.90;99.90;;;;;;5019214;28;20185;-63
2022/01/06 03:06:35;;;;;;;4.83;1.77;;;3.80;99.90;;;;;;5023516;28;20214;-62
2022/01/06 03:09:00;;;;;;;6.57;1.93;;;3.70;99.90;;;;;;5024167;28;20191;-62
2022/01/06 03:11:26;;;;;;;5.67;1.47;;;3.70;99.90;;;;;;5022841;28;20184;-63
2022/01/06 03:13:53;;;;;;;13.80;2.13;;;3.80;99.90;;;;;;5021183;28;20207;-62
2022/01/06 03:16:19;;;;;;;5.20;1.47;;;3.80;99.90;;;;;;5022400;28;20226;-63
2022/01/06 03:18:45;;;;;;;2.07;1.30;;;3.80;99.90;;;;;;5024613;28;20228;-63
2022/01/06 03:21:11;;;;;;;3.80;1.27;;;3.90;99.90;;;;;;5022565;28;20215;-64
2022/01/06 03:23:37;;;;;;;5.10;1.73;;;3.80;99.90;;;;;;5018067;28;20193;-63
2022/01/06 03:26:02;;;;;;;3.93;1.70;;;3.90;99.90;;;;;;5018292;28;20710;-67
2022/01/06 03:28:28;;;;;;;3.97;1.57;;;3.80;99.90;;;;;;5018880;28;20257;-63
2022/01/06 03:30:54;;;;;;;4.20;1.40;;;3.80;99.90;;;;;;5015672;28;20231;-63
2022/01/06 03:33:19;;;;;;;2.13;1.53;;;3.60;99.90;;;;;;5017388;28;20315;-63
2022/01/06 03:35:45;;;;;;;7.83;1.80;;;3.50;99.90;;;;;;5019035;28;20190;-63
2022/01/06 03:38:11;;;;;;;9.70;1.93;;;3.40;99.90;;;;;;5024958;28;20191;-68
2022/01/06 03:40:37;;;;;;;6.43;1.73;;;3.30;99.90;;;;;;5023784;28;20752;-70
2022/01/06 03:43:02;;;;;;;11.10;1.80;;;3.20;99.90;;;;;;5022631;28;20656;-64
2022/01/06 03:45:28;;;;;;;4.03;1.70;;;3.20;99.90;;;;;;5022649;28;20236;-63
2022/01/06 03:47:55;;;;;;;3.77;2.00;;;3.30;99.90;;;;;;5019799;28;20254;-63
2022/01/06 03:50:20;;;;;;;3.97;1.50;;;3.40;99.90;;;;;;5019021;28;20193;-63
2022/01/06 03:52:47;;;;;;;2.40;1.50;;;3.40;99.90;;;;;;5021295;28;20204;-62
2022/01/06 03:55:15;;;;;;;8.87;1.90;;;3.40;99.90;;;;;;5018674;28;20176;-62
2022/01/06 03:57:41;;;;;;;5.90;1.83;;;3.50;99.90;;;;;;5016622;28;20309;-66
2022/01/06 04:00:10;;;;;;;8.63;1.80;;;3.60;99.90;;;;;;5014082;28;20236;-63
2022/01/06 04:02:36;;;;;;;5.17;1.37;;;3.60;99.90;;;;;;5017073;28;20189;-63
2022/01/06 04:05:06;;;;;;;4.63;1.60;;;3.60;99.90;;;;;;5021358;28;20302;-62
2022/01/06 04:07:35;;;;;;;4.20;1.60;;;3.70;99.90;;;;;;5013455;28;20241;-62
2022/01/06 04:10:01;;;;;;;4.40;1.40;;;3.70;99.90;;;;;;5017168;28;20243;-66
2022/01/06 04:12:27;;;;;;;4.37;1.63;;;3.70;99.90;;;;;;5012930;28;20184;-64
2022/01/06 04:14:53;;;;;;;1.87;1.40;;;3.70;99.90;;;;;;5018571;28;20669;-67
2022/01/06 04:17:18;;;;;;;3.77;1.60;;;3.70;99.90;;;;;;5016437;28;20597;-63
2022/01/06 04:19:44;;;;;;;2.57;1.47;;;3.70;99.90;;;;;;5015855;28;20210;-64
2022/01/06 04:22:10;;;;;;;2.43;1.30;;;3.40;99.90;;;;;;5017290;28;20200;-63
2022/01/06 04:24:36;;;;;;;1.73;1.20;;;3.20;99.90;;;;;;5014952;28;20182;-64
2022/01/06 04:27:02;;;;;;;3.10;1.43;;;2.90;99.90;;;;;;5021957;28;20656;-66
2022/01/06 04:29:28;;;;;;;3.73;1.37;;;2.90;99.90;;;;;;5021710;28;20196;-64
2022/01/06 04:31:54;;;;;;;2.57;1.33;;;3.00;99.90;;;;;;5020597;28;20190;-64
2022/01/06 04:34:19;;;;;;;2.70;1.40;;;3.10;99.90;;;;;;5019381;28;20260;-62
2022/01/06 04:36:52;;;;;;;4.70;1.67;;;3.10;99.90;;;;;;5019529;28;20186;-66
2022/01/06 04:39:18;;;;;;;2.80;1.57;;;3.10;99.90;;;;;;5021190;28;20225;-67
2022/01/06 04:41:44;;;;;;;4.57;1.70;;;3.10;99.90;;;;;;5017848;28;20257;-64
2022/01/06 04:44:10;;;;;;;3.10;1.40;;;3.00;99.90;;;;;;5019574;28;20220;-65
2022/01/06 04:46:35;;;;;;;2.10;1.60;;;3.10;99.90;;;;;;5020178;28;20552;-62
2022/01/06 04:49:01;;;;;;;2.00;1.57;;;3.10;99.90;;;;;;5021117;28;20637;-63
2022/01/06 04:51:26;;;;;;;2.70;1.80;;;3.10;99.90;;;;;;5019796;28;20222;-64
2022/01/06 04:53:52;;;;;;;4.80;2.10;;;3.00;99.90;;;;;;5019620;28;20177;-62
2022/01/06 04:56:18;;;;;;;6.07;2.27;;;3.00;99.90;;;;;;5019182;28;20186;-63
2022/01/06 04:58:43;;;;;;;2.30;2.00;;;3.10;99.90;;;;;;5023211;28;20185;-64
2022/01/06 05:01:09;;;;;;;4.93;2.00;;;3.10;99.90;;;;;;5026241;28;20217;-63
2022/01/06 05:03:34;;;;;;;4.67;2.33;;;3.10;99.90;;;;;;5028260;28;20289;-65
2022/01/06 05:06:00;;;;;;;6.03;1.90;;;3.10;99.90;;;;;;5025727;28;20190;-63
2022/01/06 05:08:26;;;;;;;1.97;1.63;;;3.10;99.90;;;;;;5026222;28;20618;-63
2022/01/06 05:10:52;;;;;;;2.87;1.87;;;3.10;99.90;;;;;;5022259;28;20290;-65
2022/01/06 05:13:18;;;;;;;3.57;2.23;;;3.00;99.90;;;;;;5020521;28;20196;-63
2022/01/06 05:15:44;;;;;;;3.07;1.80;;;3.10;99.90;;;;;;5021682;28;20184;-63
2022/01/06 05:18:09;;;;;;;2.77;2.07;;;3.10;99.90;;;;;;5021953;28;20194;-67
2022/01/06 05:20:38;;;;;;;3.07;1.70;;;3.10;99.90;;;;;;5020943;28;20241;-64
2022/01/06 05:23:04;;;;;;;3.90;2.00;;;3.10;99.90;;;;;;5020232;28;20177;-63
2022/01/06 05:25:31;;;;;;;3.83;2.13;;;3.10;99.90;;;;;;5024119;28;20301;-63
2022/01/06 05:27:57;;;;;;;3.40;2.00;;;3.00;99.90;;;;;;5019567;28;20563;-63
2022/01/06 05:30:23;;;;;;;2.80;1.70;;;3.00;99.90;;;;;;5022483;28;20188;-63
2022/01/06 05:32:49;;;;;;;4.23;2.00;;;3.00;99.90;;;;;;5017893;28;20539;-62
2022/01/06 05:35:15;;;;;;;3.97;1.63;;;2.90;99.90;;;;;;5018225;28;20189;-63
2022/01/06 05:37:40;;;;;;;2.27;1.30;;;2.90;99.90;;;;;;5018851;28;20253;-67
2022/01/06 05:40:06;;;;;;;4.50;1.60;;;2.80;99.90;;;;;;5014463;28;20708;-63
2022/01/06 05:42:32;;;;;;;3.87;1.50;;;2.70;99.90;;;;;;5016169;28;20588;-62
2022/01/06 05:44:58;;;;;;;5.03;1.60;;;2.70;99.90;;;;;;5016372;28;20184;-63
2022/01/06 05:47:23;;;;;;;2.40;1.40;;;2.80;99.90;;;;;;5017858;28;20193;-65
2022/01/06 05:49:49;;;;;;;3.80;1.43;;;2.60;99.90;;;;;;5024076;28;20189;-64
2022/01/06 05:52:15;;;;;;;4.23;1.43;;;2.50;99.90;;;;;;5027577;28;20198;-66
2022/01/06 05:54:40;;;;;;;2.23;1.60;;;2.60;99.90;;;;;;5019565;28;20257;-63
2022/01/06 05:57:09;;;;;;;3.60;1.50;;;2.50;99.90;;;;;;5018305;28;20186;-67
2022/01/06 05:59:35;;;;;;;4.93;1.53;;;2.50;99.90;;;;;;5018535;28;20308;-62
2022/01/06 06:02:01;;;;;;;5.27;1.90;;;2.40;99.90;;;;;;5016351;28;20337;-68
2022/01/06 06:04:28;;;;;;;8.07;1.80;;;2.40;99.90;;;;;;5019964;28;20197;-63
2022/01/06 06:06:53;;;;;;;2.53;1.60;;;2.40;99.90;;;;;;5022430;28;20614;-63
2022/01/06 06:09:19;;;;;;;4.23;1.73;;;2.50;99.90;;;;;;5022397;28;20264;-67
2022/01/06 06:11:44;;;;;;;7.00;1.80;;;2.40;99.90;;;;;;5015962;28;20403;-63
2022/01/06 06:14:10;;;;;;;3.13;2.00;;;2.40;99.90;;;;;;5017424;28;20559;-67
2022/01/06 06:16:36;;;;;;;2.70;1.57;;;2.50;99.90;;;;;;5017986;28;20188;-64
2022/01/06 06:19:01;;;;;;;4.37;1.80;;;2.40;99.90;;;;;;5020019;28;20220;-65
2022/01/06 06:21:27;;;;;;;2.23;1.67;;;2.30;99.90;;;;;;5019699;28;20325;-63
2022/01/06 06:23:53;;;;;;;3.97;1.60;;;2.30;99.90;;;;;;5016768;28;20220;-64
2022/01/06 06:26:18;;;;;;;7.13;1.67;;;2.40;99.90;;;;;;5017600;28;20586;-69
2022/01/06 06:28:44;;;;;;;5.53;2.10;;;2.30;99.90;;;;;;5020401;28;20224;-64
2022/01/06 06:31:10;;;;;;;3.73;1.70;;;2.20;99.90;;;;;;5019887;28;20284;-61
2022/01/06 06:33:36;;;;;;;2.90;1.80;;;2.20;99.90;;;;;;5016750;28;20692;-63
2022/01/06 06:36:02;;;;;;;4.57;1.70;;;2.10;99.90;;;;;;5020035;28;20192;-63
2022/01/06 06:38:27;;;;;;;2.57;1.57;;;2.10;99.90;;;;;;5017305;28;20226;-63
2022/01/06 06:40:53;;;;;;;4.60;1.70;;;2.10;99.90;;;;;;5020575;28;20227;-63
2022/01/06 06:43:19;;;;;;;4.17;2.20;;;2.10;99.90;;;;;;5019437;28;20231;-66
2022/01/06 06:45:44;;;;;;;1.83;1.57;;;2.10;99.90;;;;;;5023157;28;20189;-63
2022/01/06 06:48:11;;;;;;;3.40;1.50;;;2.00;99.90;;;;;;5022878;28;20650;-64
2022/01/06 06:50:37;;;;;;;7.53;1.63;;;1.90;99.90;;;;;;5014048;28;20215;-64
2022/01/06 06:53:02;;;;;;;4.50;1.73;;;1.80;99.90;;;;;;5019800;28;20232;-63
2022/01/06 06:55:29;;;;;;;2.20;1.50;;;1.80;99.90;;;;;;5020997;28;20698;-63
2022/01/06 06:57:55;;;;;;;4.50;2.33;;;1.80;99.90;;;;;;5021492;28;20189;-63
2022/01/06 07:00:20;;;;;;;7.33;1.63;;;1.80;99.90;;;;;;5019442;28;20222;-64
2022/01/06 07:02:46;;;;;;;4.53;1.80;;;1.80;99.90;;;;;;5017759;28;20550;-62
2022/01/06 07:05:12;;;;;;;2.87;1.43;;;1.80;99.90;;;;;;5018641;28;20263;-67
2022/01/06 07:07:38;;;;;;;1.83;1.50;;;1.70;99.90;;;;;;5021249;28;20209;-72
2022/01/06 07:10:05;;;;;;;4.53;1.87;;;1.70;99.90;;;;;;5021272;28;20242;-62
2022/01/06 07:12:31;;;;;;;4.77;1.80;;;1.70;99.90;;;;;;5021915;28;20193;-63
2022/01/06 07:15:02;;;;;;;5.93;2.00;;;1.70;99.90;;;;;;5020739;28;20187;-64
2022/01/06 07:17:27;;;;;;;5.13;1.67;;;1.60;99.90;;;;;;5021781;28;20511;-63
2022/01/06 07:19:53;;;;;;;2.13;1.70;;;1.70;99.90;;;;;;5017480;28;20218;-64
2022/01/06 07:22:19;;;;;;;5.63;1.50;;;1.60;99.90;;;;;;5016855;28;20188;-64
2022/01/06 07:24:44;;;;;;;6.57;1.70;;;1.70;99.90;;;;;;5019416;28;20189;-63
2022/01/06 07:27:10;;;;;;;4.30;1.70;;;1.70;99.90;;;;;;5019937;28;20213;-67
2022/01/06 07:29:35;;;;;;;6.27;2.00;;;1.60;99.90;;;;;;5019680;28;20233;-68
2022/01/06 07:32:01;;;;;;;4.43;2.03;;;1.60;99.90;;;;;;5021521;28;20217;-63
2022/01/06 07:34:27;;;;;;;2.83;1.73;;;1.60;99.90;;;;;;5017736;28;20233;-64
2022/01/06 07:36:53;;;;;;;5.67;1.90;;;1.60;99.90;;;;;;5017400;28;20200;-68
2022/01/06 07:39:18;;;;;;;4.77;1.80;;;1.60;99.90;;;;;;5016509;28;20301;-64
2022/01/06 07:41:44;;;;;;;3.30;1.70;;;1.50;99.90;;;;;;5016082;28;20606;-64
2022/01/06 07:44:09;;;;;;;2.93;1.70;;;1.50;99.90;;;;;;5020140;28;20585;-63
2022/01/06 07:46:36;;;;;;;3.53;1.50;;;1.50;99.90;;;;;;5018589;28;20195;-63
2022/01/06 07:49:02;;;;;;;3.43;1.83;;;1.50;99.90;;;;;;5020895;28;20280;-63
2022/01/06 07:51:31;;;;;;;3.87;1.93;;;1.40;99.90;;;;;;5020299;28;20193;-63
2022/01/06 07:53:58;;;;;;;5.87;2.00;;;1.50;99.90;;;;;;5018288;28;20230;-63
2022/01/06 07:56:24;;;;;;;2.70;1.80;;;1.40;99.90;;;;;;5017337;28;20193;-63
2022/01/06 07:58:49;;;;;;;2.50;1.63;;;1.40;99.90;;;;;;5016531;28;20185;-63
2022/01/06 08:01:16;;;;;;;2.50;1.70;;;1.40;99.90;;;;;;5014609;28;20244;-64
2022/01/06 08:03:42;;;;;;;5.73;1.77;;;1.50;99.90;;;;;;5021252;28;20189;-64
2022/01/06 08:06:09;;;;;;;6.70;1.90;;;1.50;99.90;;;;;;5021136;28;20569;-69
2022/01/06 08:08:36;;;;;;;5.07;2.17;;;1.50;99.90;;;;;;5022290;28;20712;-63
2022/01/06 08:11:02;;;;;;;3.80;2.13;;;1.50;99.90;;;;;;5023529;28;20285;-65
2022/01/06 08:13:28;;;;;;;6.87;2.50;;;1.50;99.90;;;;;;5014049;28;20187;-64
2022/01/06 08:15:53;;;;;;;4.57;2.07;;;1.50;99.90;;;;;;5018659;28;20185;-63
2022/01/06 08:18:19;;;;;;;6.63;2.37;;;1.60;99.90;;;;;;5020686;28;20602;-67
2022/01/06 08:20:45;;;;;;;3.97;2.30;;;1.60;99.90;;;;;;5026026;28;20735;-65
2022/01/06 08:23:10;;;;;;;5.87;2.13;;;1.70;99.90;;;;;;5033579;28;20460;-65
2022/01/06 08:25:36;;;;;;;4.40;1.70;;;1.60;99.90;;;;;;5029728;28;20210;-65
2022/01/06 08:28:03;;;;;;;8.27;2.10;;;1.60;99.90;;;;;;5027502;28;20550;-64
2022/01/06 08:30:30;;;;;;;2.83;1.50;;;1.60;99.90;;;;;;5027872;28;20564;-67
2022/01/06 08:32:56;;;;;;;5.13;2.23;;;1.60;99.90;;;;;;5019732;28;20376;-63
2022/01/06 08:35:22;;;;;;;9.70;2.30;;;1.60;99.90;;;;;;5029980;28;20237;-63
2022/01/06 08:37:48;;;;;;;3.27;1.77;;;1.60;99.90;;;;;;5023221;28;20189;-67
2022/01/06 08:40:14;;;;;;;3.23;1.90;;;1.70;99.90;;;;;;5021274;28;20574;-63
2022/01/06 08:42:39;;;;;;;4.13;1.90;;;1.70;99.90;;;;;;5025393;28;20231;-62
2022/01/06 08:45:06;;;;;;;6.27;2.10;;;1.90;99.90;;;;;;5021151;28;20190;-63
2022/01/06 08:47:32;;;;;;;3.60;1.50;;;1.90;99.90;;;;;;5020752;28;20192;-63
2022/01/06 08:49:58;;;;;;;2.63;1.60;;;2.00;99.90;;;;;;5025390;28;20184;-66
2022/01/06 08:52:24;;;;;;;4.43;1.60;;;2.00;99.90;;;;;;5019604;28;20822;-64
2022/01/06 08:54:50;;;;;;;4.73;2.00;;;2.10;99.90;;;;;;5020562;28;20216;-63
2022/01/06 08:57:16;;;;;;;4.83;1.73;;;2.10;99.90;;;;;;5022006;28;21261;-63
2022/01/06 08:59:41;;;;;;;2.10;1.43;;;2.20;99.90;;;;;;5023772;28;20189;-70
2022/01/06 09:02:08;;;;;;;7.23;2.40;;;2.10;99.90;;;;;;5022889;28;20581;-66
2022/01/06 09:04:34;;;;;;;2.50;1.20;;;2.10;99.90;;;;;;5019982;28;20185;-67
2022/01/06 09:07:00;;;;;;;5.43;2.03;;;2.20;99.90;;;;;;5019050;28;20213;-63
2022/01/06 09:09:26;;;;;;;4.80;1.60;;;2.20;99.90;;;;;;5022965;28;20525;-64
2022/01/06 09:11:52;;;;;;;5.03;1.90;;;2.20;99.90;;;;;;5023506;28;20211;-64
2022/01/06 09:14:18;;;;;;;2.20;1.33;;;2.30;99.90;;;;;;5019719;28;20181;-63
2022/01/06 09:16:43;;;;;;;3.67;1.80;;;2.40;99.90;;;;;;5018477;28;20189;-64
2022/01/06 09:19:09;;;;;;;6.67;1.87;;;2.20;99.90;;;;;;5018481;28;20197;-63
2022/01/06 09:21:35;;;;;;;2.23;1.33;;;2.20;99.90;;;;;;5023857;28;20266;-64
2022/01/06 09:24:06;;;;;;;5.70;1.80;;;2.30;99.90;;;;;;5020763;28;20197;-67
2022/01/06 09:26:32;;;;;;;3.30;2.10;;;2.30;99.90;;;;;;5021476;28;20200;-64
2022/01/06 09:28:58;;;;;;;6.73;2.50;;;2.30;99.90;;;;;;5019299;28;20192;-65
2022/01/06 09:31:23;;;;;;;7.73;2.30;;;2.40;99.90;;;;;;5020768;28;20268;-66
2022/01/06 09:33:49;;;;;;;4.60;1.97;;;2.50;99.90;;;;;;5020811;28;20288;-63
2022/01/06 09:36:15;;;;;;;5.73;1.97;;;2.50;99.90;;;;;;5022657;28;20205;-63
2022/01/06 09:38:42;;;;;;;6.10;2.57;;;2.50;99.90;;;;;;5021562;28;20268;-63
2022/01/06 09:41:07;;;;;;;6.27;3.60;;;2.60;99.90;;;;;;5023977;28;20216;-64
2022/01/06 09:43:34;;;;;;;7.23;2.27;;;2.50;99.90;;;;;;5023299;28;20672;-63
2022/01/06 09:46:04;;;;;;;4.00;1.60;;;2.50;99.90;;;;;;5021857;28;20181;-66
2022/01/06 09:48:31;;;;;;;3.27;1.80;;;2.60;99.90;;;;;;5022508;28;20192;-64
2022/01/06 09:50:57;;;;;;;1.73;1.40;;;2.50;99.90;;;;;;5019694;28;20193;-64
2022/01/06 09:53:24;;;;;;;2.97;1.57;;;2.50;99.90;;;;;;5018579;28;20308;-69
2022/01/06 09:55:50;;;;;;;4.37;1.67;;;2.40;99.90;;;;;;5017548;28;20188;-63
2022/01/06 09:58:25;;;;;;;2.03;1.37;;;2.40;99.90;;;;;;5021273;28;20276;-67
2022/01/06 10:00:52;;;;;;;4.97;1.63;;;2.50;99.90;;;;;;5019882;28;20304;-66
2022/01/06 10:03:18;;;;;;;5.43;2.40;;;2.50;99.90;;;;;;5020312;28;20216;-64
2022/01/06 10:05:52;;;;;;;4.10;1.87;;;2.40;99.90;;;;;;5021279;28;20181;-68
2022/01/06 10:08:28;;;;;;;5.90;1.70;;;2.40;99.90;;;;;;5017751;28;20185;-69
2022/01/06 10:11:15;;;;;;;3.33;1.90;;;2.50;99.90;;;;;;5014824;28;20188;-63
2022/01/06 10:13:51;;;;;;;4.87;1.93;;;2.40;99.90;;;;;;5016494;28;20201;-63
2022/01/06 10:16:19;;;;;;;5.30;1.90;;;2.40;99.90;;;;;;5019735;28;20197;-64
2022/01/06 10:19:05;;;;;;;6.33;1.70;;;2.50;99.90;;;;;;5022380;28;20188;-63
2022/01/06 10:21:34;;;;;;;5.70;1.50;;;2.60;99.90;;;;;;5018661;28;20216;-64
2022/01/06 10:24:07;;;;;;;4.37;1.80;;;2.60;99.90;;;;;;5013231;28;20193;-67
2022/01/06 10:26:33;;;;;;;4.40;1.70;;;2.60;99.90;;;;;;5017111;28;20308;-64
2022/01/06 10:29:00;;;;;;;2.33;1.70;;;2.70;99.90;;;;;;5019698;28;20632;-63
2022/01/06 10:31:30;;;;;;;3.20;1.27;;;2.60;99.90;;;;;;5019314;28;20189;-64
2022/01/06 10:33:57;;;;;;;4.37;2.00;;;2.70;99.90;;;;;;5034439;28;20260;-66
2022/01/06 10:36:28;;;;;;;2.77;1.87;;;2.60;99.90;;;;;;5018953;28;20553;-65
2022/01/06 10:38:59;;;;;;;3.70;1.60;;;2.60;99.90;;;;;;5022305;28;20250;-64
2022/01/06 10:41:27;;;;;;;1.70;1.47;;;2.60;99.90;;;;;;5021516;28;20209;-64
2022/01/06 10:43:57;;;;;;;3.90;1.70;;;2.60;99.90;;;;;;5019293;28;20259;-63
2022/01/06 10:46:36;;;;;;;6.67;1.70;;;2.60;99.90;;;;;;5023742;28;20288;-63
2022/01/06 10:49:10;;;;;;;3.07;1.70;;;2.70;99.90;;;;;;5018716;28;20188;-63
2022/01/06 10:51:42;;;;;;;5.00;1.57;;;2.70;99.90;;;;;;5016516;28;20189;-65
2022/01/06 10:54:35;;;;;;;6.27;2.27;;;2.80;99.90;;;;;;5018714;28;20197;-64
2022/01/06 10:57:07;;;;;;;4.57;1.77;;;2.70;99.90;;;;;;5017514;28;20271;-63
2022/01/06 10:59:35;;;;;;;1.60;1.40;;;2.70;99.90;;;;;;5021110;28;20195;-69
2022/01/06 11:02:01;;;;;;;8.80;1.90;;;2.70;99.90;;;;;;5023297;28;20213;-65
2022/01/06 11:04:28;;;;;;;6.97;1.63;;;2.90;99.90;;;;;;5028270;28;20191;-67
2022/01/06 11:06:54;;;;;;;2.30;1.50;;;2.80;99.90;;;;;;5024433;28;20185;-64
2022/01/06 11:09:21;;;;;;;4.13;1.70;;;2.90;99.90;;;;;;5025413;28;20181;-64
2022/01/06 11:14:27;;;;;;;4.43;1.60;;;3.00;99.90;;;;;;5018022;28;20647;-66
2022/01/06 11:16:52;;;;;;;3.53;1.50;;;3.10;99.90;;;;;;5026175;28;20243;-65
2022/01/06 11:19:26;;;;;;;3.30;1.87;;;3.20;99.90;;;;;;5026091;28;20185;-65
2022/01/06 11:21:56;;;;;;;7.10;1.93;;;3.30;99.90;;;;;;5027765;28;20208;-66
2022/01/06 11:24:25;;;;;;;3.40;1.93;;;3.40;99.90;;;;;;5022512;28;20616;-66
2022/01/06 11:27:01;;;;;;;2.57;2.00;;;3.40;99.90;;;;;;5021828;28;20529;-65
2022/01/06 11:29:30;;;;;;;5.97;1.93;;;3.40;99.90;;;;;;5020912;28;20534;-64
2022/01/06 11:31:56;;;;;;;4.77;2.10;;;3.40;99.90;;;;;;5012723;28;20711;-70
2022/01/06 11:34:22;;;;;;;4.67;1.73;;;3.20;99.90;;;;;;5014468;28;20711;-69
2022/01/06 11:36:50;;;;;;;2.87;1.90;;;3.30;99.90;;;;;;5014039;28;20192;-63
2022/01/06 11:39:20;;;;;;;3.40;1.90;;;3.20;99.90;;;;;;5014763;28;20188;-66
2022/01/06 11:41:46;;;;;;;4.87;2.00;;;3.30;99.90;;;;;;5016028;28;20252;-64
2022/01/06 11:44:17;;;;;;;6.53;1.87;;;3.40;99.90;;;;;;5013443;28;20220;-63
2022/01/06 11:46:46;;;;;;;5.43;2.33;;;3.40;99.90;;;;;;5012656;28;20270;-64
2022/01/06 11:49:12;;;;;;;7.90;1.60;;;3.20;99.90;;;;;;5016051;28;20268;-63
2022/01/06 11:51:38;;;;;;;5.63;1.77;;;3.30;99.90;;;;;;5012413;28;20323;-65
2022/01/06 11:54:16;;;;;;;3.37;1.70;;;3.40;99.90;;;;;;5020098;28;20192;-69
2022/01/06 11:56:48;;;;;;;5.00;2.57;;;3.40;99.90;;;;;;5015454;28;20374;-65
2022/01/06 11:59:16;;;;;;;5.80;1.70;;;3.40;99.90;;;;;;5015180;28;20191;-63
2022/01/06 12:01:51;;;;;;;2.57;1.70;;;3.50;99.90;;;;;;5015407;28;20213;-66
2022/01/06 12:04:25;;;;;;;3.43;1.70;;;3.60;99.90;;;;;;5013866;28;20272;-64
2022/01/06 12:07:01;;;;;;;7.90;2.20;;;3.70;99.90;;;;;;4996114;28;20221;-65
2022/01/06 12:09:27;;;;;;;3.17;1.40;;;3.80;99.90;;;;;;4998580;28;20246;-67
2022/01/06 12:12:11;;;;;;;3.90;1.37;;;3.90;99.90;;;;;;5011210;28;20202;-71
2022/01/06 12:14:38;;;;;;;3.50;1.60;;;4.00;99.90;;;;;;5015741;28;20184;-67
2022/01/06 12:17:08;;;;;;;3.13;1.40;;;4.10;99.90;;;;;;5014793;28;20203;-69
2022/01/06 12:19:35;;;;;;;4.20;2.00;;;4.10;99.90;;;;;;5017561;28;20189;-65
2022/01/06 12:22:03;;;;;;;3.10;1.80;;;4.10;99.90;;;;;;5016216;28;20965;-65
2022/01/06 12:24:29;;;;;;;4.73;1.70;;;4.10;99.90;;;;;;5017420;28;20182;-69
2022/01/06 12:26:55;;;;;;;3.00;1.50;;;4.10;99.90;;;;;;5018009;28;20252;-67
2022/01/06 12:29:26;;;;;;;1.97;1.20;;;4.20;99.90;;;;;;5018469;28;21572;-67
2022/01/06 12:32:06;;;;;;;5.00;1.40;;;4.10;99.90;;;;;;5021353;28;20187;-66
2022/01/06 12:34:31;;;;;;;2.43;1.57;;;4.00;99.90;;;;;;5016683;28;20371;-67
2022/01/06 12:36:57;;;;;;;4.80;1.60;;;4.10;99.90;;;;;;5018342;28;20658;-64
2022/01/06 12:39:23;;;;;;;2.73;1.60;;;4.20;99.90;;;;;;5015984;28;20187;-70
2022/01/06 12:41:50;;;;;;;4.20;1.77;;;4.20;99.90;;;;;;5017130;28;20220;-63
2022/01/06 12:44:29;;;;;;;2.50;1.30;;;4.10;99.90;;;;;;5015361;28;20198;-64
2022/01/06 12:46:57;;;;;;;3.33;2.07;;;4.20;99.90;;;;;;5018382;28;20238;-66
2022/01/06 12:49:26;;;;;;;5.47;1.57;;;4.10;99.90;;;;;;5027537;28;20185;-65
2022/01/06 12:51:57;;;;;;;2.43;1.50;;;4.20;99.90;;;;;;5024805;28;20190;-65
2022/01/06 12:54:24;;;;;;;3.47;2.00;;;4.20;99.90;;;;;;5020833;28;20191;-69
2022/01/06 12:56:56;;;;;;;3.00;1.90;;;4.20;99.90;;;;;;5021684;28;20582;-64
2022/01/06 12:59:33;;;;;;;7.03;3.30;;;4.40;99.90;;;;;;5024885;28;20194;-65
2022/01/06 13:02:04;;;;;;;5.53;2.40;;;4.50;99.90;;;;;;5020725;28;20687;-63
2022/01/06 13:04:32;;;;;;;3.63;2.07;;;4.40;99.90;;;;;;5023156;28;20187;-65
2022/01/06 13:07:02;;;;;;;8.23;3.20;;;4.30;99.90;;;;;;5026228;28;20192;-65